KCOT/COT METAR and TAF weather

Enter ICAO airport designator
Station Type Date Time Source
KCOT METAR 2018/07/21 21:53 UTC NOAA

KCOT 212153Z AUTO 15012KT 10SM CLR 39/16 A2989 RMK AO2 SLP113 T03940156 $


Station Type Date Time Source
KCOT Decoded METAR 2018/07/21 21:53 UTC NOAA

COTULLA-LASALLE COUNTY AIRPORT , TX, United States (KCOT) 28-27N 099-13W 140M
Jul 21, 2018 - 05:53 PM EDT / 2018.07.21 2153 UTC
Wind: from the SSE (150 degrees) at 14 MPH (12 KT):0
Visibility: 10 mile(s):0
Sky conditions: clear
Temperature: 102.9 F (39.4 C)
Heat index: 103.5 F (39.7 C):1
Dew Point: 60.1 F (15.6 C)
Relative Humidity: 24%
Pressure (altimeter): 29.89 in. Hg (1012 hPa)
ob: KCOT 212153Z AUTO 15012KT 10SM CLR 39/16 A2989 RMK AO2 SLP113 T03940156
cycle: 22

Station Type Date Time Source
KCOT TAF UTC NOAA

Error!


Example: see airport list